sensor_id;sensor_type;location;lat;lon;timestamp;P1;durP1;ratioP1;P2;durP2;ratioP2
47161;SDS011;32921;53.256;8.198;2022-10-17T00:01:53;19.38;;;7.38;;
47161;SDS011;32921;53.256;8.198;2022-10-17T00:04:18;17.48;;;7.65;;
47161;SDS011;32921;53.256;8.198;2022-10-17T00:06:44;16.02;;;7.63;;
47161;SDS011;32921;53.256;8.198;2022-10-17T00:09:09;19.88;;;7.78;;
47161;SDS011;32921;53.256;8.198;2022-10-17T00:11:35;18.42;;;8.25;;
47161;SDS011;32921;53.256;8.198;2022-10-17T00:14:01;20.75;;;8.63;;
47161;SDS011;32921;53.256;8.198;2022-10-17T00:16:29;22.85;;;8.80;;
47161;SDS011;32921;53.256;8.198;2022-10-17T00:18:58;19.93;;;9.27;;
47161;SDS011;32921;53.256;8.198;2022-10-17T00:21:24;22.80;;;9.18;;
47161;SDS011;32921;53.256;8.198;2022-10-17T00:23:50;19.23;;;9.38;;
47161;SDS011;32921;53.256;8.198;2022-10-17T00:26:17;24.50;;;9.48;;
47161;SDS011;32921;53.256;8.198;2022-10-17T00:28:45;19.02;;;8.50;;
47161;SDS011;32921;53.256;8.198;2022-10-17T00:31:11;23.38;;;8.98;;
47161;SDS011;32921;53.256;8.198;2022-10-17T00:33:37;17.83;;;8.95;;
47161;SDS011;32921;53.256;8.198;2022-10-17T00:36:04;26.70;;;8.60;;
47161;SDS011;32921;53.256;8.198;2022-10-17T00:38:31;18.77;;;9.38;;
47161;SDS011;32921;53.256;8.198;2022-10-17T00:40:57;18.20;;;9.13;;
47161;SDS011;32921;53.256;8.198;2022-10-17T00:43:23;20.35;;;9.35;;
47161;SDS011;32921;53.256;8.198;2022-10-17T00:45:48;19.30;;;9.25;;
47161;SDS011;32921;53.256;8.198;2022-10-17T00:48:14;24.27;;;8.70;;
47161;SDS011;32921;53.256;8.198;2022-10-17T00:50:41;23.30;;;9.85;;
47161;SDS011;32921;53.256;8.198;2022-10-17T00:53:09;21.42;;;9.57;;
47161;SDS011;32921;53.256;8.198;2022-10-17T00:55:41;23.98;;;9.52;;
47161;SDS011;32921;53.256;8.198;2022-10-17T00:58:11;19.75;;;9.38;;
47161;SDS011;32921;53.256;8.198;2022-10-17T01:00:37;26.10;;;9.63;;
47161;SDS011;32921;53.256;8.198;2022-10-17T01:03:02;23.83;;;11.15;;
47161;SDS011;32921;53.256;8.198;2022-10-17T01:05:28;28.55;;;9.65;;
47161;SDS011;32921;53.256;8.198;2022-10-17T01:07:54;22.95;;;10.88;;
47161;SDS011;32921;53.256;8.198;2022-10-17T01:10:20;23.98;;;11.27;;
47161;SDS011;32921;53.256;8.198;2022-10-17T01:13:03;23.40;;;11.57;;
47161;SDS011;32921;53.256;8.198;2022-10-17T01:16:03;25.15;;;12.63;;
47161;SDS011;32921;53.256;8.198;2022-10-17T01:19:02;28.52;;;13.20;;
47161;SDS011;32921;53.256;8.198;2022-10-17T01:27:58;30.80;;;13.80;;
47161;SDS011;32921;53.256;8.198;2022-10-17T01:38:27;25.63;;;15.27;;
47161;SDS011;32921;53.256;8.198;2022-10-17T01:41:13;23.13;;;14.30;;
47161;SDS011;32921;53.256;8.198;2022-10-17T01:43:48;28.98;;;15.10;;
47161;SDS011;32921;53.256;8.198;2022-10-17T01:48:54;24.25;;;14.85;;
47161;SDS011;32921;53.256;8.198;2022-10-17T01:51:25;24.83;;;14.68;;
47161;SDS011;32921;53.256;8.198;2022-10-17T01:54:38;27.33;;;14.45;;
47161;SDS011;32921;53.256;8.198;2022-10-17T01:56:58;26.48;;;14.15;;
47161;SDS011;32921;53.256;8.198;2022-10-17T01:59:29;27.58;;;13.90;;
47161;SDS011;32921;53.256;8.198;2022-10-17T02:02:00;23.90;;;13.40;;
47161;SDS011;32921;53.256;8.198;2022-10-17T02:04:26;26.75;;;13.57;;
47161;SDS011;32921;53.256;8.198;2022-10-17T02:06:53;23.17;;;12.25;;
47161;SDS011;32921;53.256;8.198;2022-10-17T02:09:24;22.00;;;12.15;;
47161;SDS011;32921;53.256;8.198;2022-10-17T02:11:53;22.48;;;11.00;;
47161;SDS011;32921;53.256;8.198;2022-10-17T02:20:23;20.73;;;9.50;;
47161;SDS011;32921;53.256;8.198;2022-10-17T02:25:39;19.35;;;7.88;;
47161;SDS011;32921;53.256;8.198;2022-10-17T02:28:20;13.82;;;7.50;;
47161;SDS011;32921;53.256;8.198;2022-10-17T02:31:03;16.08;;;7.47;;
47161;SDS011;32921;53.256;8.198;2022-10-17T02:33:38;14.27;;;7.22;;
47161;SDS011;32921;53.256;8.198;2022-10-17T02:36:10;14.07;;;7.20;;
47161;SDS011;32921;53.256;8.198;2022-10-17T02:38:41;14.07;;;7.47;;
47161;SDS011;32921;53.256;8.198;2022-10-17T02:41:09;16.30;;;7.18;;
47161;SDS011;32921;53.256;8.198;2022-10-17T02:43:37;12.38;;;6.45;;
47161;SDS011;32921;53.256;8.198;2022-10-17T02:46:04;13.73;;;7.82;;
47161;SDS011;32921;53.256;8.198;2022-10-17T02:48:41;20.67;;;7.85;;
47161;SDS011;32921;53.256;8.198;2022-10-17T02:53:55;13.05;;;8.10;;
47161;SDS011;32921;53.256;8.198;2022-10-17T02:56:43;14.55;;;8.25;;
47161;SDS011;32921;53.256;8.198;2022-10-17T02:59:14;14.13;;;8.10;;
47161;SDS011;32921;53.256;8.198;2022-10-17T03:01:44;15.02;;;8.38;;
47161;SDS011;32921;53.256;8.198;2022-10-17T03:04:11;18.30;;;8.30;;
47161;SDS011;32921;53.256;8.198;2022-10-17T03:06:38;14.85;;;8.98;;
47161;SDS011;32921;53.256;8.198;2022-10-17T03:09:05;18.40;;;8.82;;
47161;SDS011;32921;53.256;8.198;2022-10-17T03:11:31;15.63;;;9.15;;
47161;SDS011;32921;53.256;8.198;2022-10-17T03:13:57;17.17;;;8.65;;
47161;SDS011;32921;53.256;8.198;2022-10-17T03:16:23;16.98;;;8.93;;
47161;SDS011;32921;53.256;8.198;2022-10-17T03:18:49;18.52;;;9.75;;
47161;SDS011;32921;53.256;8.198;2022-10-17T03:21:14;16.35;;;9.35;;
47161;SDS011;32921;53.256;8.198;2022-10-17T03:23:40;13.27;;;9.55;;
47161;SDS011;32921;53.256;8.198;2022-10-17T03:26:05;10.57;;;8.75;;
47161;SDS011;32921;53.256;8.198;2022-10-17T03:28:31;13.45;;;8.55;;
47161;SDS011;32921;53.256;8.198;2022-10-17T03:30:57;26.48;;;11.38;;
47161;SDS011;32921;53.256;8.198;2022-10-17T03:33:23;14.68;;;8.75;;
47161;SDS011;32921;53.256;8.198;2022-10-17T03:35:48;13.95;;;8.40;;
47161;SDS011;32921;53.256;8.198;2022-10-17T03:38:14;12.93;;;8.38;;
47161;SDS011;32921;53.256;8.198;2022-10-17T03:40:40;13.00;;;8.68;;
47161;SDS011;32921;53.256;8.198;2022-10-17T03:43:05;14.02;;;9.48;;
47161;SDS011;32921;53.256;8.198;2022-10-17T03:45:31;12.77;;;8.48;;
47161;SDS011;32921;53.256;8.198;2022-10-17T03:47:59;13.32;;;8.52;;
47161;SDS011;32921;53.256;8.198;2022-10-17T03:50:25;15.10;;;8.93;;
47161;SDS011;32921;53.256;8.198;2022-10-17T03:52:50;16.58;;;9.20;;
47161;SDS011;32921;53.256;8.198;2022-10-17T03:55:16;13.68;;;8.80;;
47161;SDS011;32921;53.256;8.198;2022-10-17T03:57:41;15.50;;;8.77;;
47161;SDS011;32921;53.256;8.198;2022-10-17T04:00:07;12.50;;;9.02;;
47161;SDS011;32921;53.256;8.198;2022-10-17T04:02:33;14.25;;;9.38;;
47161;SDS011;32921;53.256;8.198;2022-10-17T04:04:59;16.92;;;10.05;;
47161;SDS011;32921;53.256;8.198;2022-10-17T04:07:25;13.13;;;9.25;;
47161;SDS011;32921;53.256;8.198;2022-10-17T04:09:51;13.57;;;9.40;;
47161;SDS011;32921;53.256;8.198;2022-10-17T04:12:17;15.70;;;11.23;;
47161;SDS011;32921;53.256;8.198;2022-10-17T04:14:42;13.50;;;10.23;;
47161;SDS011;32921;53.256;8.198;2022-10-17T04:17:08;15.43;;;10.10;;
47161;SDS011;32921;53.256;8.198;2022-10-17T04:19:34;13.57;;;9.63;;
47161;SDS011;32921;53.256;8.198;2022-10-17T04:22:00;11.95;;;9.40;;
47161;SDS011;32921;53.256;8.198;2022-10-17T04:24:27;15.70;;;10.52;;
47161;SDS011;32921;53.256;8.198;2022-10-17T04:26:52;16.92;;;11.20;;
47161;SDS011;32921;53.256;8.198;2022-10-17T04:29:18;16.08;;;10.77;;
47161;SDS011;32921;53.256;8.198;2022-10-17T04:31:44;16.40;;;10.68;;
47161;SDS011;32921;53.256;8.198;2022-10-17T04:34:10;17.75;;;10.77;;
47161;SDS011;32921;53.256;8.198;2022-10-17T04:36:38;18.98;;;11.15;;
47161;SDS011;32921;53.256;8.198;2022-10-17T04:39:03;17.88;;;12.13;;
47161;SDS011;32921;53.256;8.198;2022-10-17T04:41:29;15.75;;;12.00;;
47161;SDS011;32921;53.256;8.198;2022-10-17T04:43:56;13.90;;;11.80;;
47161;SDS011;32921;53.256;8.198;2022-10-17T04:46:21;16.73;;;11.88;;
47161;SDS011;32921;53.256;8.198;2022-10-17T04:48:47;16.55;;;12.00;;
47161;SDS011;32921;53.256;8.198;2022-10-17T04:51:14;16.60;;;12.70;;
47161;SDS011;32921;53.256;8.198;2022-10-17T04:53:42;20.02;;;12.43;;
47161;SDS011;32921;53.256;8.198;2022-10-17T04:56:12;18.77;;;13.18;;
47161;SDS011;32921;53.256;8.198;2022-10-17T04:58:46;16.67;;;12.48;;
47161;SDS011;32921;53.256;8.198;2022-10-17T05:01:14;19.80;;;13.13;;
47161;SDS011;32921;53.256;8.198;2022-10-17T05:03:41;16.10;;;13.23;;
47161;SDS011;32921;53.256;8.198;2022-10-17T05:06:11;18.50;;;13.40;;
47161;SDS011;32921;53.256;8.198;2022-10-17T05:08:41;18.45;;;13.23;;
47161;SDS011;32921;53.256;8.198;2022-10-17T05:11:20;16.20;;;13.73;;
47161;SDS011;32921;53.256;8.198;2022-10-17T05:13:54;20.17;;;13.20;;
47161;SDS011;32921;53.256;8.198;2022-10-17T05:16:25;18.90;;;14.43;;
47161;SDS011;32921;53.256;8.198;2022-10-17T05:18:52;19.52;;;13.77;;
47161;SDS011;32921;53.256;8.198;2022-10-17T05:21:19;16.60;;;13.35;;
47161;SDS011;32921;53.256;8.198;2022-10-17T05:23:46;19.08;;;14.63;;
47161;SDS011;32921;53.256;8.198;2022-10-17T05:26:12;17.90;;;14.32;;
47161;SDS011;32921;53.256;8.198;2022-10-17T05:28:38;19.45;;;14.40;;
47161;SDS011;32921;53.256;8.198;2022-10-17T05:31:04;19.13;;;14.25;;
47161;SDS011;32921;53.256;8.198;2022-10-17T05:33:31;22.95;;;14.93;;
47161;SDS011;32921;53.256;8.198;2022-10-17T05:35:57;20.58;;;15.65;;
47161;SDS011;32921;53.256;8.198;2022-10-17T05:38:23;19.65;;;15.00;;
47161;SDS011;32921;53.256;8.198;2022-10-17T05:40:49;21.17;;;15.30;;
47161;SDS011;32921;53.256;8.198;2022-10-17T05:43:15;22.95;;;15.85;;
47161;SDS011;32921;53.256;8.198;2022-10-17T05:45:40;20.90;;;15.70;;
47161;SDS011;32921;53.256;8.198;2022-10-17T05:48:06;23.58;;;16.10;;
47161;SDS011;32921;53.256;8.198;2022-10-17T05:50:33;20.85;;;16.88;;
47161;SDS011;32921;53.256;8.198;2022-10-17T05:52:59;22.40;;;17.17;;
47161;SDS011;32921;53.256;8.198;2022-10-17T05:55:25;21.23;;;17.08;;
47161;SDS011;32921;53.256;8.198;2022-10-17T05:57:50;20.05;;;16.23;;
47161;SDS011;32921;53.256;8.198;2022-10-17T06:00:17;24.05;;;17.88;;
47161;SDS011;32921;53.256;8.198;2022-10-17T06:02:44;22.33;;;16.80;;
47161;SDS011;32921;53.256;8.198;2022-10-17T06:05:10;20.33;;;16.88;;
47161;SDS011;32921;53.256;8.198;2022-10-17T06:07:36;28.67;;;17.38;;
47161;SDS011;32921;53.256;8.198;2022-10-17T06:10:02;23.90;;;17.17;;
47161;SDS011;32921;53.256;8.198;2022-10-17T06:12:28;21.65;;;17.17;;
47161;SDS011;32921;53.256;8.198;2022-10-17T06:14:54;23.55;;;16.42;;
47161;SDS011;32921;53.256;8.198;2022-10-17T06:17:19;22.23;;;16.40;;
47161;SDS011;32921;53.256;8.198;2022-10-17T06:19:45;21.85;;;15.95;;
47161;SDS011;32921;53.256;8.198;2022-10-17T06:22:11;24.00;;;16.70;;
47161;SDS011;32921;53.256;8.198;2022-10-17T06:24:37;21.13;;;15.75;;
47161;SDS011;32921;53.256;8.198;2022-10-17T06:27:02;22.30;;;15.88;;
47161;SDS011;32921;53.256;8.198;2022-10-17T06:29:28;21.55;;;15.60;;
47161;SDS011;32921;53.256;8.198;2022-10-17T06:31:53;17.83;;;15.23;;
47161;SDS011;32921;53.256;8.198;2022-10-17T06:34:19;17.55;;;14.63;;
47161;SDS011;32921;53.256;8.198;2022-10-17T06:36:45;18.08;;;15.45;;
47161;SDS011;32921;53.256;8.198;2022-10-17T06:39:11;21.42;;;15.77;;
47161;SDS011;32921;53.256;8.198;2022-10-17T06:41:37;16.75;;;14.15;;
47161;SDS011;32921;53.256;8.198;2022-10-17T06:44:07;16.38;;;14.18;;
47161;SDS011;32921;53.256;8.198;2022-10-17T06:46:35;23.02;;;14.85;;
47161;SDS011;32921;53.256;8.198;2022-10-17T06:49:03;17.58;;;14.02;;
47161;SDS011;32921;53.256;8.198;2022-10-17T06:51:30;16.35;;;13.88;;
47161;SDS011;32921;53.256;8.198;2022-10-17T06:53:56;18.90;;;13.52;;
47161;SDS011;32921;53.256;8.198;2022-10-17T06:56:22;15.45;;;11.95;;
47161;SDS011;32921;53.256;8.198;2022-10-17T06:58:48;18.00;;;12.65;;
47161;SDS011;32921;53.256;8.198;2022-10-17T07:01:15;18.80;;;12.07;;
47161;SDS011;32921;53.256;8.198;2022-10-17T07:03:41;14.00;;;12.05;;
47161;SDS011;32921;53.256;8.198;2022-10-17T07:06:10;17.13;;;11.82;;
47161;SDS011;32921;53.256;8.198;2022-10-17T07:08:35;14.13;;;10.73;;
47161;SDS011;32921;53.256;8.198;2022-10-17T07:11:08;18.13;;;10.60;;
47161;SDS011;32921;53.256;8.198;2022-10-17T07:13:38;15.65;;;10.60;;
47161;SDS011;32921;53.256;8.198;2022-10-17T07:16:04;15.13;;;11.57;;
47161;SDS011;32921;53.256;8.198;2022-10-17T07:18:30;14.05;;;10.98;;
47161;SDS011;32921;53.256;8.198;2022-10-17T07:20:56;12.80;;;9.98;;
47161;SDS011;32921;53.256;8.198;2022-10-17T07:23:22;15.68;;;9.77;;
47161;SDS011;32921;53.256;8.198;2022-10-17T07:25:47;13.07;;;9.55;;
47161;SDS011;32921;53.256;8.198;2022-10-17T07:28:13;20.98;;;9.73;;
47161;SDS011;32921;53.256;8.198;2022-10-17T07:30:39;14.40;;;8.68;;
47161;SDS011;32921;53.256;8.198;2022-10-17T07:33:05;17.00;;;8.95;;
47161;SDS011;32921;53.256;8.198;2022-10-17T07:35:31;13.90;;;8.85;;
47161;SDS011;32921;53.256;8.198;2022-10-17T07:37:56;16.55;;;8.73;;
47161;SDS011;32921;53.256;8.198;2022-10-17T07:40:22;14.13;;;8.80;;
47161;SDS011;32921;53.256;8.198;2022-10-17T07:42:47;14.52;;;8.05;;
47161;SDS011;32921;53.256;8.198;2022-10-17T07:45:13;16.27;;;8.25;;
47161;SDS011;32921;53.256;8.198;2022-10-17T07:47:39;11.02;;;7.10;;
47161;SDS011;32921;53.256;8.198;2022-10-17T07:50:06;13.05;;;7.80;;
47161;SDS011;32921;53.256;8.198;2022-10-17T07:52:32;18.20;;;7.35;;
47161;SDS011;32921;53.256;8.198;2022-10-17T07:54:59;12.10;;;7.18;;
47161;SDS011;32921;53.256;8.198;2022-10-17T07:57:25;10.38;;;6.50;;
47161;SDS011;32921;53.256;8.198;2022-10-17T07:59:52;10.57;;;6.70;;
47161;SDS011;32921;53.256;8.198;2022-10-17T08:02:22;11.35;;;6.78;;
47161;SDS011;32921;53.256;8.198;2022-10-17T08:04:50;8.40;;;6.47;;
47161;SDS011;32921;53.256;8.198;2022-10-17T08:07:17;7.53;;;6.30;;
47161;SDS011;32921;53.256;8.198;2022-10-17T08:09:43;16.15;;;7.10;;
47161;SDS011;32921;53.256;8.198;2022-10-17T08:12:10;10.95;;;7.13;;
47161;SDS011;32921;53.256;8.198;2022-10-17T08:14:36;11.75;;;6.70;;
47161;SDS011;32921;53.256;8.198;2022-10-17T08:17:03;10.98;;;6.95;;
47161;SDS011;32921;53.256;8.198;2022-10-17T08:19:28;11.50;;;7.10;;
47161;SDS011;32921;53.256;8.198;2022-10-17T08:21:54;9.80;;;7.18;;
47161;SDS011;32921;53.256;8.198;2022-10-17T08:24:20;11.38;;;6.63;;
47161;SDS011;32921;53.256;8.198;2022-10-17T08:26:45;11.63;;;6.53;;
47161;SDS011;32921;53.256;8.198;2022-10-17T08:29:12;11.15;;;6.07;;
47161;SDS011;32921;53.256;8.198;2022-10-17T08:31:38;8.45;;;5.63;;
47161;SDS011;32921;53.256;8.198;2022-10-17T08:34:04;11.48;;;6.60;;
47161;SDS011;32921;53.256;8.198;2022-10-17T08:36:29;10.55;;;6.18;;
47161;SDS011;32921;53.256;8.198;2022-10-17T08:38:55;10.40;;;5.32;;
47161;SDS011;32921;53.256;8.198;2022-10-17T08:41:42;12.18;;;5.75;;
47161;SDS011;32921;53.256;8.198;2022-10-17T08:47:56;9.25;;;5.25;;
47161;SDS011;32921;53.256;8.198;2022-10-17T08:50:20;8.93;;;5.53;;
47161;SDS011;32921;53.256;8.198;2022-10-17T08:53:24;9.02;;;5.43;;
47161;SDS011;32921;53.256;8.198;2022-10-17T08:56:17;10.55;;;5.05;;
47161;SDS011;32921;53.256;8.198;2022-10-17T08:58:50;14.55;;;5.13;;
47161;SDS011;32921;53.256;8.198;2022-10-17T09:07:00;9.50;;;5.07;;
47161;SDS011;32921;53.256;8.198;2022-10-17T09:12:16;10.95;;;5.20;;
47161;SDS011;32921;53.256;8.198;2022-10-17T09:20:19;11.93;;;5.05;;
47161;SDS011;32921;53.256;8.198;2022-10-17T09:22:56;7.70;;;5.13;;
47161;SDS011;32921;53.256;8.198;2022-10-17T09:25:39;10.07;;;5.35;;
47161;SDS011;32921;53.256;8.198;2022-10-17T09:31:00;9.43;;;5.15;;
47161;SDS011;32921;53.256;8.198;2022-10-17T09:33:43;12.10;;;5.65;;
47161;SDS011;32921;53.256;8.198;2022-10-17T09:36:13;11.75;;;5.85;;
47161;SDS011;32921;53.256;8.198;2022-10-17T09:38:41;8.77;;;5.30;;
47161;SDS011;32921;53.256;8.198;2022-10-17T09:41:15;9.77;;;5.38;;
47161;SDS011;32921;53.256;8.198;2022-10-17T09:43:44;13.13;;;5.63;;
47161;SDS011;32921;53.256;8.198;2022-10-17T09:46:31;10.05;;;5.13;;
47161;SDS011;32921;53.256;8.198;2022-10-17T09:49:21;9.23;;;4.95;;
47161;SDS011;32921;53.256;8.198;2022-10-17T09:51:57;9.13;;;4.97;;
47161;SDS011;32921;53.256;8.198;2022-10-17T09:57:14;13.07;;;5.15;;
47161;SDS011;32921;53.256;8.198;2022-10-17T09:59:42;12.27;;;5.70;;
47161;SDS011;32921;53.256;8.198;2022-10-17T10:04:56;12.60;;;5.15;;
47161;SDS011;32921;53.256;8.198;2022-10-17T10:07:25;12.43;;;5.28;;
47161;SDS011;32921;53.256;8.198;2022-10-17T10:09:53;11.90;;;6.00;;
47161;SDS011;32921;53.256;8.198;2022-10-17T10:12:22;11.70;;;5.47;;
47161;SDS011;32921;53.256;8.198;2022-10-17T10:14:52;8.68;;;5.78;;
47161;SDS011;32921;53.256;8.198;2022-10-17T10:17:37;12.23;;;5.97;;
47161;SDS011;32921;53.256;8.198;2022-10-17T10:20:28;11.57;;;5.72;;
47161;SDS011;32921;53.256;8.198;2022-10-17T10:23:12;14.27;;;5.82;;
47161;SDS011;32921;53.256;8.198;2022-10-17T10:25:47;9.90;;;5.22;;
47161;SDS011;32921;53.256;8.198;2022-10-17T10:28:17;10.70;;;5.43;;
47161;SDS011;32921;53.256;8.198;2022-10-17T10:30:47;11.02;;;5.55;;
47161;SDS011;32921;53.256;8.198;2022-10-17T10:33:15;10.27;;;5.35;;
47161;SDS011;32921;53.256;8.198;2022-10-17T10:35:44;9.63;;;4.82;;
47161;SDS011;32921;53.256;8.198;2022-10-17T10:38:19;12.57;;;5.10;;
47161;SDS011;32921;53.256;8.198;2022-10-17T10:40:46;9.68;;;4.60;;
47161;SDS011;32921;53.256;8.198;2022-10-17T10:43:24;10.02;;;4.65;;
47161;SDS011;32921;53.256;8.198;2022-10-17T10:45:51;10.60;;;4.53;;
47161;SDS011;32921;53.256;8.198;2022-10-17T10:48:21;11.98;;;4.75;;
47161;SDS011;32921;53.256;8.198;2022-10-17T10:54:07;17.85;;;5.10;;
47161;SDS011;32921;53.256;8.198;2022-10-17T10:56:42;12.63;;;4.70;;
47161;SDS011;32921;53.256;8.198;2022-10-17T10:59:25;11.45;;;5.30;;
47161;SDS011;32921;53.256;8.198;2022-10-17T11:13:42;9.27;;;6.10;;
47161;SDS011;32921;53.256;8.198;2022-10-17T11:19:15;16.67;;;8.68;;
47161;SDS011;32921;53.256;8.198;2022-10-17T11:24:29;18.45;;;10.45;;
47161;SDS011;32921;53.256;8.198;2022-10-17T11:27:21;16.38;;;11.88;;
47161;SDS011;32921;53.256;8.198;2022-10-17T11:29:48;21.35;;;11.25;;
47161;SDS011;32921;53.256;8.198;2022-10-17T11:32:16;19.17;;;11.85;;
47161;SDS011;32921;53.256;8.198;2022-10-17T11:34:47;19.92;;;11.73;;
47161;SDS011;32921;53.256;8.198;2022-10-17T11:37:24;19.48;;;11.60;;
47161;SDS011;32921;53.256;8.198;2022-10-17T11:40:29;16.13;;;11.68;;
47161;SDS011;32921;53.256;8.198;2022-10-17T11:43:07;16.17;;;11.52;;
47161;SDS011;32921;53.256;8.198;2022-10-17T11:45:43;14.32;;;11.15;;
47161;SDS011;32921;53.256;8.198;2022-10-17T11:48:24;15.43;;;11.38;;
47161;SDS011;32921;53.256;8.198;2022-10-17T11:51:08;30.63;;;12.02;;
47161;SDS011;32921;53.256;8.198;2022-10-17T11:53:44;33.10;;;13.80;;
47161;SDS011;32921;53.256;8.198;2022-10-17T11:56:42;24.98;;;16.70;;
47161;SDS011;32921;53.256;8.198;2022-10-17T12:02:16;23.70;;;17.33;;
47161;SDS011;32921;53.256;8.198;2022-10-17T12:04:55;24.85;;;17.50;;
47161;SDS011;32921;53.256;8.198;2022-10-17T12:07:45;33.22;;;19.35;;
47161;SDS011;32921;53.256;8.198;2022-10-17T12:14:08;27.35;;;19.65;;
47161;SDS011;32921;53.256;8.198;2022-10-17T12:16:52;29.08;;;20.58;;
47161;SDS011;32921;53.256;8.198;2022-10-17T12:21:27;26.83;;;20.58;;
47161;SDS011;32921;53.256;8.198;2022-10-17T12:24:27;27.27;;;20.20;;
47161;SDS011;32921;53.256;8.198;2022-10-17T12:27:29;27.50;;;18.52;;
47161;SDS011;32921;53.256;8.198;2022-10-17T12:30:02;24.10;;;17.17;;
47161;SDS011;32921;53.256;8.198;2022-10-17T12:32:31;24.23;;;18.65;;
47161;SDS011;32921;53.256;8.198;2022-10-17T12:34:57;28.88;;;21.05;;
47161;SDS011;32921;53.256;8.198;2022-10-17T12:40:46;24.75;;;19.00;;
47161;SDS011;32921;53.256;8.198;2022-10-17T12:45:46;26.95;;;20.65;;
47161;SDS011;32921;53.256;8.198;2022-10-17T12:53:37;28.52;;;20.50;;
47161;SDS011;32921;53.256;8.198;2022-10-17T12:56:14;25.38;;;19.48;;
47161;SDS011;32921;53.256;8.198;2022-10-17T12:58:43;29.63;;;20.65;;
47161;SDS011;32921;53.256;8.198;2022-10-17T13:01:15;31.70;;;20.10;;
47161;SDS011;32921;53.256;8.198;2022-10-17T13:04:01;25.13;;;20.05;;
47161;SDS011;32921;53.256;8.198;2022-10-17T13:06:33;24.90;;;18.60;;
47161;SDS011;32921;53.256;8.198;2022-10-17T13:09:05;22.17;;;17.88;;
47161;SDS011;32921;53.256;8.198;2022-10-17T13:11:39;26.30;;;18.38;;
47161;SDS011;32921;53.256;8.198;2022-10-17T13:14:10;21.20;;;17.27;;
47161;SDS011;32921;53.256;8.198;2022-10-17T13:19:15;19.90;;;15.90;;
47161;SDS011;32921;53.256;8.198;2022-10-17T13:21:49;21.15;;;16.30;;
47161;SDS011;32921;53.256;8.198;2022-10-17T13:24:31;23.10;;;15.95;;
47161;SDS011;32921;53.256;8.198;2022-10-17T13:26:57;20.55;;;16.08;;
47161;SDS011;32921;53.256;8.198;2022-10-17T13:29:24;22.00;;;15.50;;
47161;SDS011;32921;53.256;8.198;2022-10-17T13:31:54;20.67;;;15.90;;
47161;SDS011;32921;53.256;8.198;2022-10-17T13:34:25;25.08;;;14.52;;
47161;SDS011;32921;53.256;8.198;2022-10-17T13:36:52;18.23;;;14.07;;
47161;SDS011;32921;53.256;8.198;2022-10-17T13:39:23;16.50;;;14.30;;
47161;SDS011;32921;53.256;8.198;2022-10-17T13:41:51;19.88;;;13.57;;
47161;SDS011;32921;53.256;8.198;2022-10-17T13:44:20;21.50;;;13.85;;
47161;SDS011;32921;53.256;8.198;2022-10-17T13:46:47;18.13;;;12.55;;
47161;SDS011;32921;53.256;8.198;2022-10-17T13:49:15;17.55;;;11.90;;
47161;SDS011;32921;53.256;8.198;2022-10-17T13:51:45;15.65;;;11.18;;
47161;SDS011;32921;53.256;8.198;2022-10-17T13:56:59;18.27;;;11.55;;
47161;SDS011;32921;53.256;8.198;2022-10-17T13:59:33;13.32;;;10.60;;
47161;SDS011;32921;53.256;8.198;2022-10-17T14:02:02;13.27;;;10.57;;
47161;SDS011;32921;53.256;8.198;2022-10-17T14:04:29;18.63;;;11.38;;
47161;SDS011;32921;53.256;8.198;2022-10-17T14:06:55;16.35;;;12.00;;
47161;SDS011;32921;53.256;8.198;2022-10-17T14:09:25;16.08;;;10.95;;
47161;SDS011;32921;53.256;8.198;2022-10-17T14:12:05;18.27;;;10.18;;
47161;SDS011;32921;53.256;8.198;2022-10-17T14:14:36;18.45;;;10.35;;
47161;SDS011;32921;53.256;8.198;2022-10-17T14:17:14;14.35;;;11.02;;
47161;SDS011;32921;53.256;8.198;2022-10-17T14:19:51;16.00;;;10.93;;
47161;SDS011;32921;53.256;8.198;2022-10-17T14:24:46;16.05;;;11.18;;
47161;SDS011;32921;53.256;8.198;2022-10-17T14:27:32;13.98;;;10.20;;
47161;SDS011;32921;53.256;8.198;2022-10-17T14:30:00;13.48;;;11.40;;
47161;SDS011;32921;53.256;8.198;2022-10-17T14:32:29;14.95;;;10.65;;
47161;SDS011;32921;53.256;8.198;2022-10-17T14:34:58;16.27;;;9.88;;
47161;SDS011;32921;53.256;8.198;2022-10-17T14:37:40;13.52;;;10.00;;
47161;SDS011;32921;53.256;8.198;2022-10-17T14:40:15;14.70;;;9.60;;
47161;SDS011;32921;53.256;8.198;2022-10-17T14:42:42;13.77;;;10.18;;
47161;SDS011;32921;53.256;8.198;2022-10-17T14:45:13;13.23;;;9.35;;
47161;SDS011;32921;53.256;8.198;2022-10-17T14:47:50;14.60;;;9.52;;
47161;SDS011;32921;53.256;8.198;2022-10-17T14:50:25;14.80;;;9.32;;
47161;SDS011;32921;53.256;8.198;2022-10-17T14:55:28;10.75;;;7.70;;
47161;SDS011;32921;53.256;8.198;2022-10-17T14:57:56;11.98;;;8.07;;
47161;SDS011;32921;53.256;8.198;2022-10-17T15:00:22;14.13;;;8.07;;
47161;SDS011;32921;53.256;8.198;2022-10-17T15:02:48;13.32;;;7.88;;
47161;SDS011;32921;53.256;8.198;2022-10-17T15:05:15;12.85;;;7.90;;
47161;SDS011;32921;53.256;8.198;2022-10-17T15:07:41;11.35;;;8.02;;
47161;SDS011;32921;53.256;8.198;2022-10-17T15:10:21;16.92;;;8.07;;
47161;SDS011;32921;53.256;8.198;2022-10-17T15:13:01;11.48;;;8.02;;
47161;SDS011;32921;53.256;8.198;2022-10-17T15:15:28;11.13;;;7.47;;
47161;SDS011;32921;53.256;8.198;2022-10-17T15:17:54;12.73;;;7.50;;
47161;SDS011;32921;53.256;8.198;2022-10-17T15:20:20;10.15;;;7.75;;
47161;SDS011;32921;53.256;8.198;2022-10-17T15:22:50;14.05;;;8.13;;
47161;SDS011;32921;53.256;8.198;2022-10-17T15:25:19;11.90;;;8.32;;
47161;SDS011;32921;53.256;8.198;2022-10-17T15:27:45;13.43;;;8.43;;
47161;SDS011;32921;53.256;8.198;2022-10-17T15:30:21;11.02;;;8.10;;
47161;SDS011;32921;53.256;8.198;2022-10-17T15:32:51;14.57;;;9.40;;
47161;SDS011;32921;53.256;8.198;2022-10-17T15:35:18;12.30;;;8.73;;
47161;SDS011;32921;53.256;8.198;2022-10-17T15:37:45;12.57;;;9.13;;
47161;SDS011;32921;53.256;8.198;2022-10-17T15:40:15;13.45;;;9.25;;
47161;SDS011;32921;53.256;8.198;2022-10-17T15:42:47;14.20;;;8.32;;
47161;SDS011;32921;53.256;8.198;2022-10-17T15:45:13;12.25;;;9.20;;
47161;SDS011;32921;53.256;8.198;2022-10-17T15:47:40;13.75;;;9.25;;
47161;SDS011;32921;53.256;8.198;2022-10-17T15:50:10;15.15;;;8.93;;
47161;SDS011;32921;53.256;8.198;2022-10-17T15:52:39;14.40;;;9.23;;
47161;SDS011;32921;53.256;8.198;2022-10-17T15:55:05;15.57;;;9.07;;
47161;SDS011;32921;53.256;8.198;2022-10-17T15:57:33;15.23;;;10.05;;
47161;SDS011;32921;53.256;8.198;2022-10-17T16:00:37;15.98;;;10.60;;
47161;SDS011;32921;53.256;8.198;2022-10-17T16:02:56;19.48;;;12.02;;
47161;SDS011;32921;53.256;8.198;2022-10-17T16:05:23;15.77;;;12.43;;
47161;SDS011;32921;53.256;8.198;2022-10-17T16:07:50;20.15;;;13.32;;
47161;SDS011;32921;53.256;8.198;2022-10-17T16:10:16;19.00;;;9.63;;
47161;SDS011;32921;53.256;8.198;2022-10-17T16:12:43;10.07;;;6.60;;
47161;SDS011;32921;53.256;8.198;2022-10-17T16:15:13;8.85;;;5.55;;
47161;SDS011;32921;53.256;8.198;2022-10-17T16:17:50;8.52;;;5.82;;
47161;SDS011;32921;53.256;8.198;2022-10-17T16:20:17;9.13;;;5.32;;
47161;SDS011;32921;53.256;8.198;2022-10-17T16:22:43;8.20;;;6.85;;
47161;SDS011;32921;53.256;8.198;2022-10-17T16:25:23;7.57;;;6.78;;
47161;SDS011;32921;53.256;8.198;2022-10-17T16:27:52;7.38;;;4.40;;
47161;SDS011;32921;53.256;8.198;2022-10-17T16:30:20;10.38;;;4.47;;
47161;SDS011;32921;53.256;8.198;2022-10-17T16:32:46;9.38;;;4.40;;